sensor_id;sensor_type;location;lat;lon;timestamp;pressure;altitude;pressure_sealevel;temperature;humidity
58698;BME280;44475;53.206;-6.106;2023-12-20T00:00:29;102103.13;;;19.92;55.71
58698;BME280;44475;53.206;-6.106;2023-12-20T00:02:55;102099.59;;;19.90;55.83
58698;BME280;44475;53.206;-6.106;2023-12-20T00:05:22;102085.06;;;19.91;54.28
58698;BME280;44475;53.206;-6.106;2023-12-20T00:07:48;102085.31;;;19.87;55.64
58698;BME280;44475;53.206;-6.106;2023-12-20T00:10:14;102106.00;;;19.89;56.31
58698;BME280;44475;53.206;-6.106;2023-12-20T00:12:41;102093.28;;;19.90;56.43
58698;BME280;44475;53.206;-6.106;2023-12-20T00:15:07;102101.22;;;19.95;56.24
58698;BME280;44475;53.206;-6.106;2023-12-20T00:17:34;102098.41;;;19.96;56.03
58698;BME280;44475;53.206;-6.106;2023-12-20T00:20:00;102096.56;;;19.97;56.18
58698;BME280;44475;53.206;-6.106;2023-12-20T00:22:27;102108.34;;;19.97;56.10
58698;BME280;44475;53.206;-6.106;2023-12-20T00:24:53;102090.34;;;19.95;56.21
58698;BME280;44475;53.206;-6.106;2023-12-20T00:27:19;102092.97;;;19.96;55.97
58698;BME280;44475;53.206;-6.106;2023-12-20T00:29:46;102085.94;;;19.92;56.29
58698;BME280;44475;53.206;-6.106;2023-12-20T00:32:15;102084.97;;;19.93;56.11
58698;BME280;44475;53.206;-6.106;2023-12-20T00:34:43;102093.06;;;19.95;55.99
58698;BME280;44475;53.206;-6.106;2023-12-20T00:37:09;102100.34;;;19.94;56.10
58698;BME280;44475;53.206;-6.106;2023-12-20T00:39:35;102087.63;;;19.95;56.23
58698;BME280;44475;53.206;-6.106;2023-12-20T00:42:02;102088.50;;;19.95;56.34
58698;BME280;44475;53.206;-6.106;2023-12-20T00:44:28;102092.03;;;19.97;56.25
58698;BME280;44475;53.206;-6.106;2023-12-20T00:46:54;102084.09;;;19.92;56.19
58698;BME280;44475;53.206;-6.106;2023-12-20T00:49:21;102084.16;;;19.91;56.48
58698;BME280;44475;53.206;-6.106;2023-12-20T00:51:47;102080.66;;;19.89;56.75
58698;BME280;44475;53.206;-6.106;2023-12-20T00:54:16;102078.81;;;19.89;56.62
58698;BME280;44475;53.206;-6.106;2023-12-20T00:56:43;102078.81;;;19.89;56.90
58698;BME280;44475;53.206;-6.106;2023-12-20T00:59:09;102087.03;;;19.88;56.96
58698;BME280;44475;53.206;-6.106;2023-12-20T01:01:35;102078.88;;;19.88;56.84
58698;BME280;44475;53.206;-6.106;2023-12-20T01:04:02;102071.72;;;19.87;56.80
58698;BME280;44475;53.206;-6.106;2023-12-20T01:06:28;102057.03;;;19.89;56.83
58698;BME280;44475;53.206;-6.106;2023-12-20T01:08:54;102057.84;;;19.91;56.87
58698;BME280;44475;53.206;-6.106;2023-12-20T01:11:21;102064.16;;;19.92;56.66
58698;BME280;44475;53.206;-6.106;2023-12-20T01:13:48;102044.09;;;19.95;56.63
58698;BME280;44475;53.206;-6.106;2023-12-20T01:16:14;102044.09;;;19.95;56.61
58698;BME280;44475;53.206;-6.106;2023-12-20T01:18:40;102025.03;;;19.95;56.64
58698;BME280;44475;53.206;-6.106;2023-12-20T01:21:06;102022.41;;;19.93;56.67
58698;BME280;44475;53.206;-6.106;2023-12-20T01:23:33;102020.56;;;19.94;56.55
58698;BME280;44475;53.206;-6.106;2023-12-20T01:25:59;102038.72;;;19.93;56.62
58698;BME280;44475;53.206;-6.106;2023-12-20T01:28:26;102034.25;;;19.92;56.53
58698;BME280;44475;53.206;-6.106;2023-12-20T01:30:52;102036.88;;;19.94;56.34
58698;BME280;44475;53.206;-6.106;2023-12-20T01:33:19;102031.53;;;19.92;56.25
58698;BME280;44475;53.206;-6.106;2023-12-20T01:35:45;102035.94;;;19.95;56.19
58698;BME280;44475;53.206;-6.106;2023-12-20T01:38:11;102059.59;;;19.92;56.23
58698;BME280;44475;53.206;-6.106;2023-12-20T01:40:38;102029.75;;;19.91;56.23
58698;BME280;44475;53.206;-6.106;2023-12-20T01:43:10;102036.09;;;19.91;56.09
58698;BME280;44475;53.206;-6.106;2023-12-20T01:45:38;102038.72;;;19.93;56.28
58698;BME280;44475;53.206;-6.106;2023-12-20T01:48:05;102039.69;;;19.92;56.52
58698;BME280;44475;53.206;-6.106;2023-12-20T01:50:36;102038.81;;;19.91;56.54
58698;BME280;44475;53.206;-6.106;2023-12-20T01:53:05;102049.78;;;19.90;56.40
58698;BME280;44475;53.206;-6.106;2023-12-20T01:55:36;102044.31;;;19.90;56.36
58698;BME280;44475;53.206;-6.106;2023-12-20T01:58:04;102030.72;;;19.90;56.30
58698;BME280;44475;53.206;-6.106;2023-12-20T02:00:31;102037.13;;;19.89;56.64
58698;BME280;44475;53.206;-6.106;2023-12-20T02:03:01;102031.75;;;19.87;56.43
58698;BME280;44475;53.206;-6.106;2023-12-20T02:05:30;102043.44;;;19.89;56.27
58698;BME280;44475;53.206;-6.106;2023-12-20T02:07:57;102031.59;;;19.90;56.42
58698;BME280;44475;53.206;-6.106;2023-12-20T02:10:24;102028.97;;;19.89;56.41
58698;BME280;44475;53.206;-6.106;2023-12-20T02:12:51;102025.38;;;19.88;56.54
58698;BME280;44475;53.206;-6.106;2023-12-20T02:15:19;102029.75;;;19.91;56.51
58698;BME280;44475;53.206;-6.106;2023-12-20T02:17:46;102037.03;;;19.90;56.67
58698;BME280;44475;53.206;-6.106;2023-12-20T02:20:13;102027.03;;;19.91;56.70
58698;BME280;44475;53.206;-6.106;2023-12-20T02:22:42;102037.84;;;19.92;56.41
58698;BME280;44475;53.206;-6.106;2023-12-20T02:25:08;102024.31;;;19.91;56.62
58698;BME280;44475;53.206;-6.106;2023-12-20T02:27:35;102005.22;;;19.92;56.55
58698;BME280;44475;53.206;-6.106;2023-12-20T02:30:01;102016.88;;;19.95;56.38
58698;BME280;44475;53.206;-6.106;2023-12-20T02:32:29;102021.38;;;19.96;56.32
58698;BME280;44475;53.206;-6.106;2023-12-20T02:34:56;102036.72;;;19.97;56.35
58698;BME280;44475;53.206;-6.106;2023-12-20T02:37:22;102034.97;;;19.96;56.64
58698;BME280;44475;53.206;-6.106;2023-12-20T02:39:49;102045.94;;;19.94;56.55
58698;BME280;44475;53.206;-6.106;2023-12-20T02:42:15;102060.34;;;19.96;56.47
58698;BME280;44475;53.206;-6.106;2023-12-20T02:44:41;102048.72;;;19.92;56.47
58698;BME280;44475;53.206;-6.106;2023-12-20T02:47:08;102054.25;;;19.91;56.58
58698;BME280;44475;53.206;-6.106;2023-12-20T02:49:34;102051.53;;;19.91;56.51
58698;BME280;44475;53.206;-6.106;2023-12-20T02:52:01;102063.13;;;19.95;56.59
58698;BME280;44475;53.206;-6.106;2023-12-20T02:54:27;102044.16;;;19.93;56.51
58698;BME280;44475;53.206;-6.106;2023-12-20T02:56:53;102039.59;;;19.94;56.57
58698;BME280;44475;53.206;-6.106;2023-12-20T02:59:19;102048.72;;;19.92;56.60
58698;BME280;44475;53.206;-6.106;2023-12-20T03:01:46;102048.72;;;19.92;56.45
58698;BME280;44475;53.206;-6.106;2023-12-20T03:04:12;102050.50;;;19.94;56.44
58698;BME280;44475;53.206;-6.106;2023-12-20T03:06:39;102054.25;;;19.91;56.54
58698;BME280;44475;53.206;-6.106;2023-12-20T03:09:05;102046.09;;;19.91;56.66
58698;BME280;44475;53.206;-6.106;2023-12-20T03:11:32;102063.28;;;19.91;56.49
58698;BME280;44475;53.206;-6.106;2023-12-20T03:13:58;102056.16;;;19.89;56.62
58698;BME280;44475;53.206;-6.106;2023-12-20T03:16:24;102058.88;;;19.89;56.54
58698;BME280;44475;53.206;-6.106;2023-12-20T03:18:51;102042.56;;;19.89;56.29
58698;BME280;44475;53.206;-6.106;2023-12-20T03:21:18;102031.59;;;19.90;56.37
58698;BME280;44475;53.206;-6.106;2023-12-20T03:23:44;102019.75;;;19.91;56.29
58698;BME280;44475;53.206;-6.106;2023-12-20T03:26:11;102032.41;;;19.92;56.25
58698;BME280;44475;53.206;-6.106;2023-12-20T03:28:37;102006.25;;;19.90;56.10
58698;BME280;44475;53.206;-6.106;2023-12-20T03:31:03;102012.56;;;19.90;56.30
58698;BME280;44475;53.206;-6.106;2023-12-20T03:33:30;102026.09;;;19.92;56.12
58698;BME280;44475;53.206;-6.106;2023-12-20T03:35:56;102011.69;;;19.90;56.15
58698;BME280;44475;53.206;-6.106;2023-12-20T03:38:23;102011.69;;;19.90;56.40
58698;BME280;44475;53.206;-6.106;2023-12-20T03:40:52;102014.31;;;19.91;56.12
58698;BME280;44475;53.206;-6.106;2023-12-20T03:43:18;102009.75;;;19.92;56.02
58698;BME280;44475;53.206;-6.106;2023-12-20T03:45:44;101996.25;;;19.90;56.26
58698;BME280;44475;53.206;-6.106;2023-12-20T03:48:11;101991.69;;;19.91;56.62
58698;BME280;44475;53.206;-6.106;2023-12-20T03:50:37;101998.00;;;19.91;56.27
58698;BME280;44475;53.206;-6.106;2023-12-20T03:53:03;102002.56;;;19.91;56.27
58698;BME280;44475;53.206;-6.106;2023-12-20T03:55:30;102001.59;;;19.92;56.45
58698;BME280;44475;53.206;-6.106;2023-12-20T03:57:56;102002.47;;;19.92;56.36
58698;BME280;44475;53.206;-6.106;2023-12-20T04:00:22;102006.25;;;19.90;56.46
58698;BME280;44475;53.206;-6.106;2023-12-20T04:02:48;102015.28;;;19.90;56.66
58698;BME280;44475;53.206;-6.106;2023-12-20T04:05:15;101994.47;;;19.89;56.48
58698;BME280;44475;53.206;-6.106;2023-12-20T04:07:41;102007.28;;;19.87;56.16
58698;BME280;44475;53.206;-6.106;2023-12-20T04:10:07;101998.16;;;19.88;56.17
58698;BME280;44475;53.206;-6.106;2023-12-20T04:12:34;102004.47;;;19.89;56.38
58698;BME280;44475;53.206;-6.106;2023-12-20T04:15:01;102001.75;;;19.89;56.20
58698;BME280;44475;53.206;-6.106;2023-12-20T04:17:27;102004.47;;;19.89;56.17
58698;BME280;44475;53.206;-6.106;2023-12-20T04:19:54;102005.28;;;19.91;56.33
58698;BME280;44475;53.206;-6.106;2023-12-20T04:22:20;102027.13;;;19.89;56.31
58698;BME280;44475;53.206;-6.106;2023-12-20T04:24:46;102057.94;;;19.90;56.25
58698;BME280;44475;53.206;-6.106;2023-12-20T04:27:13;102043.38;;;19.91;56.03
58698;BME280;44475;53.206;-6.106;2023-12-20T04:29:39;102042.50;;;19.90;56.14
58698;BME280;44475;53.206;-6.106;2023-12-20T04:32:06;102050.66;;;19.90;56.26
58698;BME280;44475;53.206;-6.106;2023-12-20T04:34:32;102054.25;;;19.91;56.23
58698;BME280;44475;53.206;-6.106;2023-12-20T04:36:58;102066.72;;;19.95;56.00
58698;BME280;44475;53.206;-6.106;2023-12-20T04:39:25;102045.22;;;19.90;56.26
58698;BME280;44475;53.206;-6.106;2023-12-20T04:41:52;102033.38;;;19.91;56.08
58698;BME280;44475;53.206;-6.106;2023-12-20T04:44:18;102022.56;;;19.90;56.28
58698;BME280;44475;53.206;-6.106;2023-12-20T04:46:44;102011.59;;;19.91;56.17
58698;BME280;44475;53.206;-6.106;2023-12-20T04:49:11;102006.16;;;19.91;56.10
58698;BME280;44475;53.206;-6.106;2023-12-20T04:51:37;102013.44;;;19.91;56.15
58698;BME280;44475;53.206;-6.106;2023-12-20T04:54:04;102025.38;;;19.88;56.10
58698;BME280;44475;53.206;-6.106;2023-12-20T04:56:30;102032.56;;;19.89;56.24
58698;BME280;44475;53.206;-6.106;2023-12-20T04:58:56;102032.56;;;19.89;55.94
58698;BME280;44475;53.206;-6.106;2023-12-20T05:01:23;102021.69;;;19.89;56.06
58698;BME280;44475;53.206;-6.106;2023-12-20T05:03:49;102016.25;;;19.89;56.17
58698;BME280;44475;53.206;-6.106;2023-12-20T05:06:15;102022.66;;;19.88;55.83
58698;BME280;44475;53.206;-6.106;2023-12-20T05:08:42;102036.16;;;19.90;56.15
58698;BME280;44475;53.206;-6.106;2023-12-20T05:11:08;102038.81;;;19.91;56.00
58698;BME280;44475;53.206;-6.106;2023-12-20T05:13:34;102019.75;;;19.91;55.98
58698;BME280;44475;53.206;-6.106;2023-12-20T05:16:01;102034.25;;;19.92;56.21
58698;BME280;44475;53.206;-6.106;2023-12-20T05:18:27;102036.97;;;19.92;56.05
58698;BME280;44475;53.206;-6.106;2023-12-20T05:20:53;102026.09;;;19.92;56.28
58698;BME280;44475;53.206;-6.106;2023-12-20T05:23:20;102050.41;;;19.95;56.11
58698;BME280;44475;53.206;-6.106;2023-12-20T05:25:46;102036.00;;;19.93;56.40
58698;BME280;44475;53.206;-6.106;2023-12-20T05:28:13;102025.94;;;19.95;56.32
58698;BME280;44475;53.206;-6.106;2023-12-20T05:30:39;102026.72;;;19.97;56.26
58698;BME280;44475;53.206;-6.106;2023-12-20T05:33:05;102021.38;;;19.96;56.27
58698;BME280;44475;53.206;-6.106;2023-12-20T05:35:32;102032.41;;;19.92;56.19
58698;BME280;44475;53.206;-6.106;2023-12-20T05:37:58;102027.84;;;19.93;56.25
58698;BME280;44475;53.206;-6.106;2023-12-20T05:40:24;102032.41;;;19.92;56.06
58698;BME280;44475;53.206;-6.106;2023-12-20T05:42:51;102031.44;;;19.94;56.13
58698;BME280;44475;53.206;-6.106;2023-12-20T05:45:17;102021.53;;;19.92;56.23
58698;BME280;44475;53.206;-6.106;2023-12-20T05:47:43;102010.72;;;19.91;56.30
58698;BME280;44475;53.206;-6.106;2023-12-20T05:50:09;102007.03;;;19.92;56.26
58698;BME280;44475;53.206;-6.106;2023-12-20T05:52:36;102007.13;;;19.90;56.22
58698;BME280;44475;53.206;-6.106;2023-12-20T05:55:02;102002.47;;;19.92;56.36
58698;BME280;44475;53.206;-6.106;2023-12-20T05:57:28;102000.81;;;19.90;56.29
58698;BME280;44475;53.206;-6.106;2023-12-20T05:59:55;102001.69;;;19.90;56.55
58698;BME280;44475;53.206;-6.106;2023-12-20T06:02:21;101998.09;;;19.90;56.40
58698;BME280;44475;53.206;-6.106;2023-12-20T06:04:47;101995.28;;;19.91;56.50
58698;BME280;44475;53.206;-6.106;2023-12-20T06:07:15;101984.41;;;19.91;56.48
58698;BME280;44475;53.206;-6.106;2023-12-20T06:09:41;101967.28;;;19.89;56.50
58698;BME280;44475;53.206;-6.106;2023-12-20T06:12:08;101958.16;;;19.90;56.40
58698;BME280;44475;53.206;-6.106;2023-12-20T06:14:34;101957.28;;;19.90;56.61
58698;BME280;44475;53.206;-6.106;2023-12-20T06:17:01;101971.84;;;19.89;56.54
58698;BME280;44475;53.206;-6.106;2023-12-20T06:19:28;101969.03;;;19.90;56.56
58698;BME280;44475;53.206;-6.106;2023-12-20T06:21:54;101972.72;;;19.89;56.54
58698;BME280;44475;53.206;-6.106;2023-12-20T06:24:20;101968.25;;;19.88;56.58
58698;BME280;44475;53.206;-6.106;2023-12-20T06:26:47;101972.72;;;19.89;56.44
58698;BME280;44475;53.206;-6.106;2023-12-20T06:29:14;101973.59;;;19.90;56.56
58698;BME280;44475;53.206;-6.106;2023-12-20T06:31:40;101962.72;;;19.90;56.75
58698;BME280;44475;53.206;-6.106;2023-12-20T06:34:06;101966.50;;;19.87;56.62
58698;BME280;44475;53.206;-6.106;2023-12-20T06:36:33;101960.88;;;19.90;56.70
58698;BME280;44475;53.206;-6.106;2023-12-20T06:38:59;101961.84;;;19.89;56.70
58698;BME280;44475;53.206;-6.106;2023-12-20T06:41:26;101954.75;;;19.87;56.47
58698;BME280;44475;53.206;-6.106;2023-12-20T06:43:52;101960.09;;;19.88;56.57
58698;BME280;44475;53.206;-6.106;2023-12-20T06:46:19;101955.53;;;19.89;56.72
58698;BME280;44475;53.206;-6.106;2023-12-20T06:48:46;101960.28;;;19.85;56.81
58698;BME280;44475;53.206;-6.106;2023-12-20T06:51:15;101948.59;;;19.83;56.61
58698;BME280;44475;53.206;-6.106;2023-12-20T06:53:43;101958.59;;;19.83;56.90
58698;BME280;44475;53.206;-6.106;2023-12-20T06:56:11;101946.75;;;19.84;56.85
58698;BME280;44475;53.206;-6.106;2023-12-20T06:58:38;101953.88;;;19.86;56.42
58698;BME280;44475;53.206;-6.106;2023-12-20T07:01:05;101972.91;;;19.86;57.03
58698;BME280;44475;53.206;-6.106;2023-12-20T07:03:31;101998.28;;;19.87;56.84
58698;BME280;44475;53.206;-6.106;2023-12-20T07:05:58;101980.34;;;19.83;56.97
58698;BME280;44475;53.206;-6.106;2023-12-20T07:08:24;101986.69;;;19.83;56.90
58698;BME280;44475;53.206;-6.106;2023-12-20T07:10:51;101965.81;;;19.84;57.10
58698;BME280;44475;53.206;-6.106;2023-12-20T07:13:17;101988.44;;;19.84;57.01
58698;BME280;44475;53.206;-6.106;2023-12-20T07:15:43;101953.09;;;19.84;56.82
58698;BME280;44475;53.206;-6.106;2023-12-20T07:18:10;101944.03;;;19.84;56.96
58698;BME280;44475;53.206;-6.106;2023-12-20T07:20:36;101969.31;;;19.86;56.99
58698;BME280;44475;53.206;-6.106;2023-12-20T07:23:02;101969.31;;;19.86;57.12
58698;BME280;44475;53.206;-6.106;2023-12-20T07:25:28;101977.47;;;19.86;56.98
58698;BME280;44475;53.206;-6.106;2023-12-20T07:27:58;101986.53;;;19.86;56.77
58698;BME280;44475;53.206;-6.106;2023-12-20T07:30:24;101993.81;;;19.86;56.75
58698;BME280;44475;53.206;-6.106;2023-12-20T07:32:51;101961.91;;;19.88;56.96
58698;BME280;44475;53.206;-6.106;2023-12-20T07:35:18;101970.09;;;19.88;56.92
58698;BME280;44475;53.206;-6.106;2023-12-20T07:37:44;101948.25;;;19.89;56.74
58698;BME280;44475;53.206;-6.106;2023-12-20T07:40:11;101959.13;;;19.89;56.96
58698;BME280;44475;53.206;-6.106;2023-12-20T07:42:37;101960.09;;;19.88;56.90
58698;BME280;44475;53.206;-6.106;2023-12-20T07:45:04;101959.22;;;19.88;56.98
58698;BME280;44475;53.206;-6.106;2023-12-20T07:47:31;101940.16;;;19.88;56.88
58698;BME280;44475;53.206;-6.106;2023-12-20T07:49:57;101924.72;;;19.88;56.99
58698;BME280;44475;53.206;-6.106;2023-12-20T07:52:23;101924.91;;;19.85;56.80
58698;BME280;44475;53.206;-6.106;2023-12-20T07:54:50;101921.31;;;19.85;56.82
58698;BME280;44475;53.206;-6.106;2023-12-20T07:57:16;101918.69;;;19.83;56.69
58698;BME280;44475;53.206;-6.106;2023-12-20T07:59:42;101913.16;;;19.85;56.65
58698;BME280;44475;53.206;-6.106;2023-12-20T08:02:10;101900.34;;;19.87;56.39
58698;BME280;44475;53.206;-6.106;2023-12-20T08:04:37;101895.00;;;19.85;56.51
58698;BME280;44475;53.206;-6.106;2023-12-20T08:07:04;101904.91;;;19.86;56.52
58698;BME280;44475;53.206;-6.106;2023-12-20T08:09:30;101879.66;;;19.84;56.32
58698;BME280;44475;53.206;-6.106;2023-12-20T08:11:58;101902.97;;;19.88;56.80
58698;BME280;44475;53.206;-6.106;2023-12-20T08:14:25;101877.59;;;19.88;56.63
58698;BME280;44475;53.206;-6.106;2023-12-20T08:16:52;101883.03;;;19.88;56.62
58698;BME280;44475;53.206;-6.106;2023-12-20T08:19:18;101893.94;;;19.88;56.46
58698;BME280;44475;53.206;-6.106;2023-12-20T08:21:44;101888.59;;;19.86;56.52
58698;BME280;44475;53.206;-6.106;2023-12-20T08:24:11;101880.53;;;19.85;56.59
58698;BME280;44475;53.206;-6.106;2023-12-20T08:26:37;101875.00;;;19.86;56.53
58698;BME280;44475;53.206;-6.106;2023-12-20T08:29:03;101877.81;;;19.85;56.61
58698;BME280;44475;53.206;-6.106;2023-12-20T08:31:29;101874.22;;;19.84;56.17
58698;BME280;44475;53.206;-6.106;2023-12-20T08:33:56;101859.72;;;19.84;56.36
58698;BME280;44475;53.206;-6.106;2023-12-20T08:36:22;101862.53;;;19.82;56.35
58698;BME280;44475;53.206;-6.106;2023-12-20T08:38:50;101859.72;;;19.84;56.29
58698;BME280;44475;53.206;-6.106;2023-12-20T08:41:17;101884.13;;;19.85;56.65
58698;BME280;44475;53.206;-6.106;2023-12-20T08:43:43;101891.41;;;19.85;56.71
58698;BME280;44475;53.206;-6.106;2023-12-20T08:46:10;101862.38;;;19.85;56.64
58698;BME280;44475;53.206;-6.106;2023-12-20T08:48:36;101879.03;;;19.95;56.32
58698;BME280;44475;53.206;-6.106;2023-12-20T08:51:04;101878.16;;;19.95;56.25
58698;BME280;44475;53.206;-6.106;2023-12-20T08:53:30;101866.84;;;19.86;56.77
58698;BME280;44475;53.206;-6.106;2023-12-20T08:55:56;101867.72;;;19.87;56.43
58698;BME280;44475;53.206;-6.106;2023-12-20T08:58:27;101884.03;;;19.87;56.72
58698;BME280;44475;53.206;-6.106;2023-12-20T09:00:54;101875.88;;;19.87;56.45
58698;BME280;44475;53.206;-6.106;2023-12-20T09:03:20;101876.72;;;19.87;56.45
58698;BME280;44475;53.206;-6.106;2023-12-20T09:05:46;101860.41;;;19.87;56.71
58698;BME280;44475;53.206;-6.106;2023-12-20T09:08:13;101872.50;;;19.98;56.00
58698;BME280;44475;53.206;-6.106;2023-12-20T09:10:39;101861.19;;;19.89;56.54
58698;BME280;44475;53.206;-6.106;2023-12-20T09:13:05;101874.72;;;19.91;56.37
58698;BME280;44475;53.206;-6.106;2023-12-20T09:15:32;101855.75;;;19.89;56.41
58698;BME280;44475;53.206;-6.106;2023-12-20T09:18:00;101836.81;;;19.88;56.52
58698;BME280;44475;53.206;-6.106;2023-12-20T09:20:26;101845.09;;;19.86;56.50
58698;BME280;44475;53.206;-6.106;2023-12-20T09:22:53;101853.13;;;19.88;56.45
58698;BME280;44475;53.206;-6.106;2023-12-20T09:25:19;101820.59;;;19.86;56.74
58698;BME280;44475;53.206;-6.106;2023-12-20T09:27:46;101800.69;;;19.86;56.66
58698;BME280;44475;53.206;-6.106;2023-12-20T09:30:12;101816.88;;;19.87;56.35
58698;BME280;44475;53.206;-6.106;2023-12-20T09:32:39;101812.44;;;19.86;56.57
58698;BME280;44475;53.206;-6.106;2023-12-20T09:35:06;101790.69;;;19.86;56.72
58698;BME280;44475;53.206;-6.106;2023-12-20T09:37:32;101795.25;;;19.86;57.08
58698;BME280;44475;53.206;-6.106;2023-12-20T09:39:59;101797.75;;;19.89;56.99
58698;BME280;44475;53.206;-6.106;2023-12-20T09:45:02;101799.59;;;19.88;56.80
58698;BME280;44475;53.206;-6.106;2023-12-20T09:47:29;101804.97;;;19.90;57.22
58698;BME280;44475;53.206;-6.106;2023-12-20T09:49:56;101813.41;;;19.85;56.90
58698;BME280;44475;53.206;-6.106;2023-12-20T09:52:23;101803.66;;;19.81;56.57
58698;BME280;44475;53.206;-6.106;2023-12-20T09:54:51;101787.25;;;19.83;56.83
58698;BME280;44475;53.206;-6.106;2023-12-20T09:57:20;101765.31;;;19.86;56.27
58698;BME280;44475;53.206;-6.106;2023-12-20T09:59:46;101783.50;;;19.85;56.04
58698;BME280;44475;53.206;-6.106;2023-12-20T10:02:14;101785.41;;;19.83;55.93
58698;BME280;44475;53.206;-6.106;2023-12-20T10:04:47;101788.94;;;19.85;55.83
58698;BME280;44475;53.206;-6.106;2023-12-20T10:07:16;101798.06;;;19.84;55.72
58698;BME280;44475;53.206;-6.106;2023-12-20T10:09:43;101797.16;;;19.84;55.86
58698;BME280;44475;53.206;-6.106;2023-12-20T10:12:10;101778.13;;;19.84;55.64
58698;BME280;44475;53.206;-6.106;2023-12-20T10:14:37;101765.88;;;19.76;55.45
58698;BME280;44475;53.206;-6.106;2023-12-20T10:17:05;101769.97;;;19.67;55.38
58698;BME280;44475;53.206;-6.106;2023-12-20T10:19:32;101773.50;;;19.69;55.54
58698;BME280;44475;53.206;-6.106;2023-12-20T10:22:04;101765.00;;;19.76;55.42
58698;BME280;44475;53.206;-6.106;2023-12-20T10:24:31;101773.03;;;19.77;55.51
58698;BME280;44475;53.206;-6.106;2023-12-20T10:27:08;101761.28;;;19.77;55.13
58698;BME280;44475;53.206;-6.106;2023-12-20T10:29:38;101773.81;;;19.79;55.30
58698;BME280;44475;53.206;-6.106;2023-12-20T10:32:25;101769.34;;;19.78;55.07
58698;BME280;44475;53.206;-6.106;2023-12-20T10:34:52;101782.94;;;19.78;55.05
58698;BME280;44475;53.206;-6.106;2023-12-20T10:37:18;101796.53;;;19.78;55.24
58698;BME280;44475;53.206;-6.106;2023-12-20T10:39:53;101797.44;;;19.79;55.16
58698;BME280;44475;53.206;-6.106;2023-12-20T10:42:26;101770.22;;;19.79;55.07
58698;BME280;44475;53.206;-6.106;2023-12-20T10:44:52;101759.44;;;19.77;54.98
58698;BME280;44475;53.206;-6.106;2023-12-20T10:47:21;101772.06;;;19.78;55.04
58698;BME280;44475;53.206;-6.106;2023-12-20T10:49:49;101774.78;;;19.78;55.15
58698;BME280;44475;53.206;-6.106;2023-12-20T10:52:17;101784.72;;;19.79;54.97
58698;BME280;44475;53.206;-6.106;2023-12-20T10:54:44;101762.94;;;19.79;55.14
58698;BME280;44475;53.206;-6.106;2023-12-20T10:57:12;101795.78;;;19.76;55.05
58698;BME280;44475;53.206;-6.106;2023-12-20T10:59:38;101782.94;;;19.78;55.10
58698;BME280;44475;53.206;-6.106;2023-12-20T11:02:05;101787.50;;;19.78;55.13
58698;BME280;44475;53.206;-6.106;2023-12-20T11:04:53;101756.72;;;19.77;55.05
58698;BME280;44475;53.206;-6.106;2023-12-20T11:07:58;101758.47;;;19.78;54.96
58698;BME280;44475;53.206;-6.106;2023-12-20T11:13:10;101773.91;;;19.78;54.84
58698;BME280;44475;53.206;-6.106;2023-12-20T11:15:38;101744.00;;;19.78;54.91
58698;BME280;44475;53.206;-6.106;2023-12-20T11:18:05;101747.59;;;19.78;55.05
58698;BME280;44475;53.206;-6.106;2023-12-20T11:20:40;101752.16;;;19.78;55.09
58698;BME280;44475;53.206;-6.106;2023-12-20T11:23:10;101738.47;;;19.79;55.00
58698;BME280;44475;53.206;-6.106;2023-12-20T11:25:56;101746.72;;;19.78;55.03
58698;BME280;44475;53.206;-6.106;2023-12-20T11:28:25;101731.38;;;19.77;55.06
58698;BME280;44475;53.206;-6.106;2023-12-20T11:30:57;101718.56;;;19.79;54.93
58698;BME280;44475;53.206;-6.106;2023-12-20T11:33:37;101711.50;;;19.76;54.82
58698;BME280;44475;53.206;-6.106;2023-12-20T11:36:12;101722.38;;;19.76;54.98
58698;BME280;44475;53.206;-6.106;2023-12-20T11:38:48;101710.50;;;19.77;54.96
58698;BME280;44475;53.206;-6.106;2023-12-20T11:41:16;101695.16;;;19.76;54.92
58698;BME280;44475;53.206;-6.106;2023-12-20T11:43:42;101713.31;;;19.76;54.95
58698;BME280;44475;53.206;-6.106;2023-12-20T11:46:10;101712.34;;;19.77;54.84
58698;BME280;44475;53.206;-6.106;2023-12-20T11:48:38;101706.03;;;19.76;54.86
58698;BME280;44475;53.206;-6.106;2023-12-20T11:51:14;101705.06;;;19.77;54.85
58698;BME280;44475;53.206;-6.106;2023-12-20T11:53:41;101706.03;;;19.76;54.77
58698;BME280;44475;53.206;-6.106;2023-12-20T11:56:10;101699.63;;;19.77;54.91
58698;BME280;44475;53.206;-6.106;2023-12-20T11:58:37;101707.00;;;19.75;54.88
58698;BME280;44475;53.206;-6.106;2023-12-20T12:01:04;101726.03;;;19.75;54.91
58698;BME280;44475;53.206;-6.106;2023-12-20T12:03:33;101699.63;;;19.77;54.66
58698;BME280;44475;53.206;-6.106;2023-12-20T12:05:59;101706.03;;;19.76;54.89
58698;BME280;44475;53.206;-6.106;2023-12-20T12:08:26;101704.19;;;19.77;54.63
58698;BME280;44475;53.206;-6.106;2023-12-20T12:10:53;101700.59;;;19.76;54.65
58698;BME280;44475;53.206;-6.106;2023-12-20T12:13:19;101698.72;;;19.77;54.71
58698;BME280;44475;53.206;-6.106;2023-12-20T12:15:46;101683.28;;;19.77;54.76
58698;BME280;44475;53.206;-6.106;2023-12-20T12:18:16;101669.63;;;19.79;54.63
58698;BME280;44475;53.206;-6.106;2023-12-20T12:20:43;101669.69;;;19.77;54.59
58698;BME280;44475;53.206;-6.106;2023-12-20T12:23:09;101661.66;;;19.76;54.69
58698;BME280;44475;53.206;-6.106;2023-12-20T12:25:36;101663.50;;;19.75;54.88
58698;BME280;44475;53.206;-6.106;2023-12-20T12:28:05;101659.69;;;19.78;54.77
58698;BME280;44475;53.206;-6.106;2023-12-20T12:30:32;101661.75;;;19.74;54.70
58698;BME280;44475;53.206;-6.106;2023-12-20T12:32:58;101649.91;;;19.75;54.77
58698;BME280;44475;53.206;-6.106;2023-12-20T12:35:24;101647.06;;;19.77;54.71
58698;BME280;44475;53.206;-6.106;2023-12-20T12:37:51;101638.91;;;19.77;54.69
58698;BME280;44475;53.206;-6.106;2023-12-20T12:40:18;101636.31;;;19.75;54.67
58698;BME280;44475;53.206;-6.106;2023-12-20T12:42:45;101656.41;;;19.73;54.96
58698;BME280;44475;53.206;-6.106;2023-12-20T12:45:12;101617.44;;;19.72;54.87